Weather observations for the past three days for
Kivalina, Kivalina Airport
Metric (Imperial)
Date Time (akdt) Wind (kph) Vis. (km) Weather Sky Cond. Temperature (ºC) Relative Humidity Wind Chill (°C) Heat Index (°C) Pressure Precipitation (cm)
Air Dwpt 6 hour altimeter (cm) sea level (mb) 1 hr 3 hr 6 hr
Max. Min.
10 14:53 NW 9 16.09 Fair CLR 2.8 -3.3 65% 1 75.08 1001.1
10 13:53 NE 9 16.09 Fair CLR 2.2 -3.3 67% -0 75.11 1001.5
10 12:53 NE 11 16.09 Fair CLR 1.7 -3.9 67% -1 75.13 1001.8
10 11:53 NE 19 16.09 Fair CLR 0.6 -5 66% -4 75.16 1002.0
10 10:53 NE 20 16.09 Fair CLR 0.6 -5 66% -4 75.16 1002.0
10 09:53 NE 19 16.09 Fair CLR -0.6 -5.6 -0.6 -5.6 69% -5 75.18 1002.2
10 08:53 NE 20 16.09 Fair CLR -1.7 -6.1 72% -7 75.18 1002.3
10 07:53 N 15 16.09 Fair CLR -4.4 -7.2 81% -9 75.21 1002.7
10 06:53 N 15 16.09 Fair CLR -5 -7.8 81% -10 75.21 1002.8
10 05:53 N 19 16.09 Fair CLR -5.6 -7.8 85% -12 75.23 1002.9
10 04:53 NE 20 16.09 Fair CLR -4.4 -7.2 81% -10 75.23 1003.0
10 03:53 NE 20 16.09 Fair CLR -3.9 -7.2 0 -3.9 78% -10 75.26 1003.2
10 02:53 NE 30 16.09 Fair CLR -2.2 -7.2 69% -9 75.26 1003.3
10 01:53 E 37 16.09 Fair and Breezy CLR -2.2 -7.8 66% -10 75.26 1003.4
10 00:53 E 31 G 50 16.09 Fair CLR -1.7 -7.2 66% -8 75.29 1003.5
09 23:53 E 31 16.09 Fair CLR -1.1 -6.7 66% -8 75.26 1003.4
09 22:53 E 31 16.09 Fair CLR -0.6 -6.7 64% -7 75.26 1003.3
09 21:53 E 35 16.09 Fair and Breezy CLR 0 -6.7 2.2 0 61% -7 75.26 1003.4
09 20:53 E 39 16.09 Fair and Breezy CLR 0 -6.7 61% -7 75.23 1003.0
09 19:53 E 31 G 37 16.09 Fair CLR 0.6 -6.1 61% -5 75.23 1003.1
09 18:53 E 35 16.09 Fair and Breezy CLR 0.6 -6.1 61% -6 75.23 1002.9
09 17:53 E 39 G 46 16.09 Fair and Breezy CLR 1.7 -5.6 59% -5 75.21 1002.7
09 15:53 N 24 16.09 Fair CLR 1.1 -5 1.7 -3.3 64% -4 75.29 1003.7
09 14:53 N 28 16.09 A Few Clouds FEW110 1.1 -5 64% -4 75.34 1004.2
09 13:53 NE 22 16.09 A Few Clouds FEW120 1.7 -7.8 50% -3 75.36 1004.8
09 12:53 N 20 16.09 Fair CLR 0.6 -7.2 56% -4 75.41 1005.4
09 11:53 NE 15 16.09 Fair CLR -0.6 -8.3 56% -5 75.46 1006.0
09 10:53 N 17 16.09 Fair CLR -1.7 -7.8 63% -6 75.49 1006.4
09 09:53 N 9 16.09 Fair CLR -3.3 -8.9 -3.3 -7.2 66% -7 75.54 1007.1
09 08:53 N 15 16.09 Fair CLR -5 -8.9 74% -10 75.59 1007.6
09 07:53 N 17 16.09 Fair CLR -6.1 -10 74% -12 75.59 1007.9
09 06:53 N 15 16.09 Fair CLR -7.2 -10 81% -13 75.64 1008.3
09 05:53 N 17 16.09 Fair CLR -6.7 -10 78% -13 75.67 1008.6
09 04:53 N 17 16.09 Fair CLR -7.2 -10 81% -13 75.69 1009.1
09 03:53 N 17 16.09 Fair CLR -6.7 -9.4 -0.6 -6.7 81% -13 75.69 1009.1
09 02:53 NE 28 16.09 Fair CLR -6.1 -9.4 78% -14 75.72 1009.5
09 01:53 NE 24 16.09 Fair CLR -5 -8.3 78% -12 75.74 1009.9
09 00:53 N 28 16.09 Fair CLR -3.9 -7.2 78% -11 75.74 1009.9
08 23:53 NE 37 16.09 Fair and Breezy CLR -2.8 -6.7 75% -10 75.77 1010.2
08 22:53 N 35 16.09 Fair and Breezy CLR -1.7 -5.6 75% -9 75.82 1010.7
08 21:53 N 30 16.09 Fair CLR -0.6 -5 2.2 -0.6 72% -7 75.84 1011.2
08 20:53 N 26 16.09 Fair CLR 0.6 -5 66% -5 75.87 1011.5
08 19:53 N 30 16.09 Fair CLR 1.1 -5 64% -5 75.9 1012.0
08 18:53 N 22 16.09 Fair CLR 1.7 -5 61% -3 75.95 1012.5
08 17:53 W 13 16.09 Fair CLR 0.6 -3.9 72% -3 76.02 1013.5
08 16:53 N 17 16.09 Fair CLR 0.6 -5 66% -4 76.1 1014.4
08 15:53 W 17 16.09 Fair CLR 0 -3.9 0 -5.6 75% -4 76.15 1015.1
08 14:53 W 17 16.09 Fair CLR -0.6 -4.4 76% -5 76.2 1015.8
08 13:53 W 11 16.09 Fair CLR -1.7 -5 78% -5 76.25 1016.5
08 12:53 W 7 16.09 Fair CLR -3.3 -6.1 81% -6 76.3 1017.2
08 11:53 W 7 16.09 Fair CLR -3.9 -6.7 81% -7 76.33 1017.7
08 10:53 SW 6 16.09 Fair CLR -5 -6.1 92% 76.38 1018.3
08 09:53 Calm 16.09 Fair CLR -5 -6.7 -5 -7.2 88% 76.4 1018.6
08 08:53 E 7 16.09 Fair CLR -5.6 -6.7 92% -9 76.43 1019.0
08 07:53 NE 9 16.09 A Few Clouds FEW100 -6.1 -7.8 88% -10 76.45 1019.3
08 06:53 E 6 16.09 Mostly Cloudy BKN100 -7.2 -8.3 92% 76.48 1019.5
08 05:53 NE 9 16.09 Mostly Cloudy BKN110 -6.7 -7.8 92% -11 76.5 1019.8
08 04:53 E 7 16.09 Fair CLR -6.7 -7.8 92% -10 76.5 1019.8
08 03:53 Calm 16.09 Fair CLR -5.6 -7.2 -1.7 -6.1 89% 76.5 1020.1
08 02:53 N 7 16.09 Fair CLR -5 -7.2 85% -8 76.53 1020.3
08 01:53 NE 9 16.09 Fair CLR -4.4 -6.7 84% -8 76.56 1020.6
08 00:53 Calm 16.09 Fair CLR -4.4 -5.6 91% 76.56 1020.7
07 23:53 Calm 16.09 Fair CLR -2.8 -5 85% 76.56 1020.8
07 22:53 W 6 16.09 Fair CLR -2.8 -4.4 89% 76.56 1020.7
07 21:53 W 11 16.09 Fair CLR -1.7 -4.4 -0.6 -1.7 82% -5 76.56 1020.7
07 20:53 W 11 16.09 Fair CLR -1.1 -4.4 79% -5 76.56 1020.6
07 19:53 NW 15 16.09 Fair CLR -0.6 -4.4 76% -5 76.58 1020.8
07 18:53 NW 17 16.09 Fair CLR -0.6 -4.4 76% -5 76.58 1020.8
07 17:53 W 15 16.09 Fair CLR -0.6 -5.6 69% -5 76.58 1020.9
07 16:53 NW 17 16.09 Fair CLR -1.1 -6.1 69% -6 76.58 1021.1
07 15:53 W 15 16.09 Fair CLR -1.1 -6.7 -1.1 -5 66% -5 76.61 1021.4
Date Time (akdt) Wind (kph) Vis. (km) Weather Sky Cond. Air Dwpt Max. Min. Relative Humidity Wind Chill (°C) Heat Index (°C) altimeter (cm) sea level (mb) 1 hr 3 hr 6 hr
6 hour
Temperature (ºC) Pressure Precipitation (cm)